Time;durP1;ratioP1;P1;durP2;ratioP2;P2;SDS_P1;SDS_P2;PMS_P1;PMS_P2;Temp;Humidity;BMP_temperature;BMP_pressure;BME280_temperature;BME280_humidity;BME280_pressure;Samples;Min_cycle;Max_cycle;Signal;HPM_P1;HPM_P2
2023/11/12 00:02:35;;;;;;;;;1.00;1.00;;;;;14.62;60.43;100596.63;146605;577;46917;-71
2023/11/12 00:05:59;;;;;;;;;0.67;0.67;;;;;12.89;60.39;100315.31;146605;623;47012;-71
2023/11/12 00:09:04;;;;;;;;;1.33;0.00;;;;;14.30;60.94;100594.66;146605;586;48012;-71
2023/11/12 00:12:05;;;;;;;;;0.00;0.00;;;;;14.20;61.63;100589.06;146609;618;47010;-71
2023/11/12 00:15:20;;;;;;;;;0.00;0.00;;;;;14.19;61.12;100588.19;146608;579;46012;-71
2023/11/12 00:18:23;;;;;;;;;1.00;0.00;;;;;14.20;60.80;100581.25;146610;583;46010;-71
2023/11/12 00:21:26;;;;;;;;;;;;;;;;;;;;;
2023/11/12 00:24:40;;;;;;;;;0.00;0.00;;;;;14.28;60.68;100571.97;146606;696;46020;-71
2023/11/12 00:27:41;;;;;;;;;0.00;0.00;;;;;14.35;60.52;100578.28;146601;632;47017;-71
2023/11/12 00:30:41;;;;;;;;;0.00;0.00;;;;;14.45;60.67;100572.53;146606;579;46010;-74
2023/11/12 00:33:36;;;;;;;;;0.00;0.00;;;;;14.51;60.92;100559.72;146606;625;46016;-75
2023/11/12 00:36:32;;;;;;;;;0.00;0.00;;;;;14.55;60.79;100564.22;146608;629;47010;-79
2023/11/12 00:39:27;;;;;;;;;0.00;0.00;;;;;14.58;60.54;100560.81;146605;569;46012;-80
2023/11/12 00:42:24;;;;;;;;;1.67;0.00;;;;;14.62;60.18;100558.34;146608;599;46021;-84
2023/11/12 00:45:25;;;;;;;;;0.67;0.00;;;;;14.68;59.89;100566.37;146601;590;48014;-83
2023/11/12 00:48:27;;;;;;;;;0.67;0.67;;;;;14.73;61.52;100567.38;146609;635;46010;-83
2023/11/12 00:51:21;;;;;;;;;1.33;1.33;;;;;14.79;61.68;100558.87;146603;613;46016;-82
2023/11/12 00:54:14;;;;;;;;;1.50;1.00;;;;;14.84;60.97;100569.47;146604;627;46020;-83
2023/11/12 00:57:21;;;;;;;;;3.00;2.00;;;;;14.89;61.07;100570.50;146603;628;47013;-82
2023/11/12 01:00:29;;;;;;;;;3.00;1.00;;;;;14.86;60.80;100566.09;146610;574;46010;-82
2023/11/12 01:03:36;;;;;;;;;5.00;2.00;;;;;14.95;60.84;100566.37;146599;692;47016;-82
2023/11/12 01:06:44;;;;;;;;;3.00;2.00;;;;;14.97;60.58;100566.41;146606;585;46010;-81
2023/11/12 01:09:42;;;;;;;;;3.67;2.67;;;;;14.94;61.20;100561.97;146606;664;46014;-81
2023/11/12 01:12:54;;;;;;;;;2.67;2.00;;;;;14.94;61.58;100561.97;146608;595;47010;-78
2023/11/12 01:15:53;;;;;;;;;3.67;3.33;;;;;14.92;61.48;100568.87;146604;657;47025;-80
2023/11/12 01:19:08;;;;;;;;;;;;;;;;;;;;;
2023/11/12 01:22:19;;;;;;;;;;;;;;;;;;;;;
2023/11/12 01:25:24;;;;;;;;;4.25;3.00;;;;;14.79;61.67;100538.87;146604;601;46010;-80
2023/11/12 01:28:21;;;;;;;;;3.00;2.00;;;;;14.75;61.58;100544.84;146606;595;46016;-76
2023/11/12 01:31:23;;;;;;;;;3.75;2.75;;;;;14.68;61.66;100549.84;146608;683;46012;-80
2023/11/12 01:34:21;;;;;;;;;3.25;3.00;;;;;14.63;62.48;100557.50;146603;619;47013;-78
2023/11/12 01:37:16;;;;;;;;;7.00;2.00;;;;;14.63;62.64;100552.28;146607;668;47020;-77
2023/11/12 01:40:18;;;;;;;;;2.33;2.00;;;;;14.67;62.22;100551.56;146603;656;47012;-77
2023/11/12 01:43:21;;;;;;;;;1.00;1.00;;;;;14.71;61.96;100558.66;146609;597;46011;-78
2023/11/12 01:46:39;;;;;;;;;2.00;2.00;;;;;14.75;61.99;100560.50;146603;569;46016;-77
2023/11/12 01:49:34;;;;;;;;;3.00;2.00;;;;;14.81;62.63;100554.59;146605;610;46021;-78
2023/11/12 01:52:28;;;;;;;;;2.00;1.00;;;;;14.85;62.71;100553.84;146602;645;47917;-77
2023/11/12 01:55:33;;;;;;;;;3.00;2.00;;;;;14.89;62.29;100554.81;146603;609;47020;-79
2023/11/12 01:58:27;;;;;;;;;1.00;0.33;;;;;14.88;61.76;100553.06;146608;603;46012;-77
2023/11/12 02:01:41;;;;;;;;;2.33;0.00;;;;;13.12;60.71;100248.44;146608;590;46010;-77
2023/11/12 02:04:46;;;;;;;;;1.33;0.00;;;;;14.87;60.85;100553.91;146606;653;47016;-74
2023/11/12 02:07:48;;;;;;;;;0.00;0.00;;;;;14.95;61.23;100552.41;146607;590;46020;-73
2023/11/12 02:11:09;;;;;;;;;0.33;0.00;;;;;15.02;61.17;100555.28;146607;642;46017;-73
2023/11/12 02:14:25;;;;;;;;;0.00;0.00;;;;;15.09;60.25;100561.56;146608;636;46020;-74
2023/11/12 02:17:26;;;;;;;;;0.00;0.00;;;;;15.09;60.11;100568.50;146607;588;47012;-74
2023/11/12 02:20:26;;;;;;;;;0.00;0.00;;;;;15.04;60.45;100573.56;146608;580;46010;-76
2023/11/12 02:23:26;;;;;;;;;0.00;0.00;;;;;15.08;60.08;100570.25;146606;579;47012;-75
2023/11/12 02:26:24;;;;;;;;;0.00;0.00;;;;;15.09;60.86;100564.16;146607;678;46020;-77
2023/11/12 02:29:18;;;;;;;;;0.00;0.00;;;;;15.10;60.80;100552.88;146606;644;47012;-75
2023/11/12 02:32:18;;;;;;;;;0.00;0.00;;;;;15.18;60.67;100555.72;146607;624;46020;-76
2023/11/12 02:35:21;;;;;;;;;0.00;0.00;;;;;15.21;60.53;100550.59;146600;613;47012;-76
2023/11/12 02:38:19;;;;;;;;;0.00;0.00;;;;;15.25;60.25;100558.56;146607;580;47020;-75
2023/11/12 02:41:22;;;;;;;;;0.00;0.00;;;;;15.30;59.46;100544.78;146604;598;47012;-71
2023/11/12 02:44:32;;;;;;;;;2.00;0.00;;;;;15.37;59.32;100558.03;146609;578;46010;-76
2023/11/12 02:47:26;;;;;;;;;0.00;0.00;;;;;15.44;59.76;100564.31;146606;577;46016;-77
2023/11/12 02:50:52;;;;;;;;;0.00;0.00;;;;;14.31;59.77;100351.28;146605;563;46034;-76
2023/11/12 02:53:48;;;;;;;;;0.00;0.00;;;;;15.47;59.82;100544.38;146607;575;46016;-76
2023/11/12 02:56:51;;;;;;;;;0.00;0.00;;;;;15.50;59.91;100555.78;146607;589;46023;-73
2023/11/12 03:00:04;;;;;;;;;3.67;1.00;;;;;15.50;59.83;100547.94;146609;596;46012;-74
2023/11/12 03:03:01;;;;;;;;;3.00;3.00;;;;;15.51;59.45;100553.19;146609;655;47020;-76
2023/11/12 03:05:57;;;;;;;;;0.67;0.00;;;;;15.51;59.78;100554.94;146606;583;46016;-72
2023/11/12 03:08:58;;;;;;;;;1.00;1.00;;;;;15.50;60.19;100559.28;146611;564;46029;-72
2023/11/12 03:11:59;;;;;;;;;3.00;2.00;;;;;15.45;60.68;100569.59;146601;564;47017;-71
2023/11/12 03:15:34;;;;;;;;;1.33;1.33;;;;;13.52;60.27;100248.06;146609;588;47010;-71
2023/11/12 03:18:29;;;;;;;;;3.67;1.33;;;;;15.37;60.11;100580.66;146608;673;46013;-72
2023/11/12 03:21:49;;;;;;;;;1.67;0.67;;;;;15.36;60.36;100578.91;146608;605;46010;-72
2023/11/12 03:24:42;;;;;;;;;0.00;0.00;;;;;15.35;60.76;100574.50;146601;614;46016;-72
2023/11/12 03:27:41;;;;;;;;;0.67;0.33;;;;;15.34;60.78;100573.63;146606;585;46021;-72
2023/11/12 03:30:39;;;;;;;;;0.00;0.00;;;;;15.36;60.50;100558.00;146607;603;46917;-71
2023/11/12 03:33:35;;;;;;;;;0.00;0.00;;;;;15.40;61.04;100570.31;146608;576;47010;-72
2023/11/12 03:37:12;;;;;;;;;0.00;0.00;;;;;15.42;61.30;100564.28;146603;681;46016;-72
2023/11/12 03:40:05;;;;;;;;;0.00;0.00;;;;;15.44;61.56;100566.94;146610;564;46010;-73
2023/11/12 03:43:35;;;;;;;;;2.00;0.00;;;;;13.60;61.45;100249.16;146606;620;46016;-73
2023/11/12 03:46:35;;;;;;;;;0.00;0.00;;;;;15.47;62.47;100570.50;146608;632;46010;-71
2023/11/12 03:49:34;;;;;;;;;0.00;0.00;;;;;15.47;61.73;100570.50;146603;578;46016;-70
2023/11/12 03:52:38;;;;;;;;;1.00;0.67;;;;;15.50;61.57;100574.06;146609;637;46010;-70
2023/11/12 03:55:38;;;;;;;;;1.00;0.00;;;;;15.51;61.93;100573.22;146607;595;46017;-71
2023/11/12 03:58:47;;;;;;;;;1.00;0.67;;;;;15.44;61.87;100580.00;146607;565;46020;-71
2023/11/12 04:01:48;;;;;;;;;0.00;0.00;;;;;15.42;62.10;100581.66;146604;605;46941;-71
2023/11/12 04:04:52;;;;;;;;;1.00;1.00;;;;;15.42;63.26;100593.03;146608;570;46020;-72
2023/11/12 04:08:12;;;;;;;;;0.00;0.00;;;;;15.40;62.15;100593.81;146605;645;46016;-71
2023/11/12 04:11:13;;;;;;;;;1.00;0.67;;;;;15.35;62.96;100585.84;146605;634;48011;-72
2023/11/12 04:14:12;;;;;;;;;0.33;0.00;;;;;15.34;63.69;100591.03;146606;599;46012;-70
2023/11/12 04:17:24;;;;;;;;;0.00;0.00;;;;;15.34;63.51;100604.09;146607;572;46010;-72
2023/11/12 04:20:28;;;;;;;;;1.00;0.00;;;;;15.32;63.29;100598.81;146603;609;47017;-71
2023/11/12 04:23:27;;;;;;;;;0.33;0.00;;;;;15.31;63.21;100597.03;146605;661;46020;-71
2023/11/12 04:26:47;;;;;;;;;0.00;0.00;;;;;15.26;64.14;100601.22;146604;565;47014;-72
2023/11/12 04:29:42;;;;;;;;;1.00;1.00;;;;;15.23;63.83;100602.06;146626;639;45020;-72
2023/11/12 04:32:45;;;;;;;;;2.00;0.00;;;;;15.23;63.44;100608.97;146629;587;46010;-72
2023/11/12 04:35:45;;;;;;;;;1.00;1.00;;;;;15.22;63.54;100613.31;146629;618;45020;-71
2023/11/12 04:38:52;;;;;;;;;;;;;;;;;;;;;
2023/11/12 04:41:50;;;;;;;;;0.33;0.00;;;;;15.18;63.32;100614.06;146631;578;44052;-69
2023/11/12 04:44:50;;;;;;;;;2.00;0.67;;;;;15.14;63.59;100616.53;146627;589;47012;-70
2023/11/12 04:48:05;;;;;;;;;0.00;0.00;;;;;15.06;63.70;100624.13;146630;610;45021;-70
2023/11/12 04:51:00;;;;;;;;;1.00;1.00;;;;;15.00;64.34;100614.38;146630;570;45012;-70
2023/11/12 04:53:58;;;;;;;;;3.00;2.00;;;;;14.92;64.16;100625.41;146626;576;46010;-71
2023/11/12 04:57:09;;;;;;;;;1.67;0.00;;;;;14.86;64.62;100615.69;146629;569;46037;-70
2023/11/12 05:00:19;;;;;;;;;2.33;1.00;;;;;14.72;64.40;100606.50;146625;563;46012;-71
2023/11/12 05:03:40;;;;;;;;;0.00;0.00;;;;;12.78;64.10;100295.84;146627;625;45016;-76
2023/11/12 05:07:01;;;;;;;;;0.00;0.00;;;;;14.54;65.07;100630.25;146630;650;45020;-75
2023/11/12 05:09:57;;;;;;;;;0.00;0.00;;;;;14.49;65.32;100630.09;146625;577;45017;-75
2023/11/12 05:12:53;;;;;;;;;1.33;1.33;;;;;14.44;65.71;100625.53;146631;627;45028;-74
2023/11/12 05:16:07;;;;;;;;;0.33;0.00;;;;;14.34;66.18;100629.56;146626;602;45016;-76
2023/11/12 05:19:07;;;;;;;;;2.67;0.00;;;;;14.28;65.93;100645.00;146629;576;46010;-77
2023/11/12 05:22:05;;;;;;;;;3.00;2.00;;;;;14.24;66.43;100645.75;146627;577;46014;-78
2023/11/12 05:25:01;;;;;;;;;2.25;2.00;;;;;14.23;66.48;100663.06;146632;570;45011;-79
2023/11/12 05:28:05;;;;;;;;;3.00;2.25;;;;;14.27;66.49;100658.88;146616;604;47016;-78
2023/11/12 05:31:09;;;;;;;;;3.33;2.33;;;;;14.33;66.62;100659.09;146604;599;46915;-79
2023/11/12 05:34:17;;;;;;;;;1.00;1.00;;;;;14.36;66.54;100645.25;146604;595;46916;-79
2023/11/12 05:37:18;;;;;;;;;4.33;1.33;;;;;14.37;66.84;100649.66;146608;618;46029;-76
2023/11/12 05:40:23;;;;;;;;;4.75;3.00;;;;;14.43;66.53;100655.09;146604;650;46013;-74
2023/11/12 05:43:22;;;;;;;;;3.00;2.00;;;;;14.49;66.47;100671.84;146605;586;46036;-71
2023/11/12 05:46:21;;;;;;;;;2.00;1.33;;;;;14.59;66.94;100686.12;146606;601;46016;-71
2023/11/12 05:49:30;;;;;;;;;2.00;1.00;;;;;14.70;66.16;100686.47;146607;588;47010;-76
2023/11/12 05:52:31;;;;;;;;;4.67;1.67;;;;;14.75;65.71;100693.63;146607;693;46016;-76
2023/11/12 05:55:49;;;;;;;;;1.75;1.50;;;;;14.87;65.69;100705.31;146606;563;46021;-77
2023/11/12 05:58:52;;;;;;;;;2.50;2.50;;;;;15.15;67.73;100708.00;146606;590;46016;-75
2023/11/12 06:01:58;;;;;;;;;4.00;4.00;;;;;15.62;64.77;100700.75;146603;619;47011;-78
2023/11/12 06:04:53;;;;;;;;;3.75;3.00;;;;;15.93;63.26;100714.78;146605;582;46012;-72
2023/11/12 06:07:50;;;;;;;;;3.00;2.75;;;;;16.08;63.75;100720.47;146605;582;46020;-73
2023/11/12 06:10:52;;;;;;;;;2.25;2.25;;;;;16.57;66.12;100724.44;146605;644;46012;-72
2023/11/12 06:13:55;;;;;;;;;14.25;12.00;;;;;17.13;60.00;100725.88;146606;611;46020;-73
2023/11/12 06:17:07;;;;;;;;;18.50;16.00;;;;;17.39;59.48;100735.28;146600;571;47013;-72
2023/11/12 06:20:25;;;;;;;;;19.00;17.75;;;;;15.79;59.56;100428.50;146606;569;46010;-75
2023/11/12 06:23:27;;;;;;;;;16.00;15.00;;;;;17.61;58.96;100756.75;146601;596;46013;-74
2023/11/12 06:26:45;;;;;;;;;19.75;19.00;;;;;17.51;58.78;100764.41;146608;632;46020;-76
2023/11/12 06:29:50;;;;;;;;;22.25;16.00;;;;;17.34;59.38;100759.59;146622;569;46939;-74
2023/11/12 06:32:59;;;;;;;;;7.25;7.25;;;;;17.15;58.98;100758.25;146626;580;46012;-76
2023/11/12 06:36:22;;;;;;;;;13.25;11.00;;;;;16.09;60.99;100625.44;146628;630;45016;-74
2023/11/12 06:39:28;;;;;;;;;13.75;12.75;;;;;16.85;60.72;100772.31;146622;569;47010;-73
2023/11/12 06:42:32;;;;;;;;;11.75;11.00;;;;;16.78;60.85;100796.59;146627;563;45016;-72
2023/11/12 06:45:38;;;;;;;;;9.75;8.75;;;;;16.77;61.98;100789.59;146626;581;46021;-72
2023/11/12 06:48:31;;;;;;;;;8.75;7.00;;;;;16.76;61.73;100788.69;146625;606;45016;-73
2023/11/12 06:51:50;;;;;;;;;10.00;7.50;;;;;16.78;61.63;100794.84;146625;554;46020;-75
2023/11/12 06:55:01;;;;;;;;;9.25;8.00;;;;;16.82;62.47;100788.88;146619;626;47916;-78
2023/11/12 06:58:01;;;;;;;;;9.50;7.25;;;;;16.89;63.90;100794.28;146627;574;46010;-78
2023/11/12 07:01:02;;;;;;;;;7.50;7.50;;;;;17.01;61.70;100798.09;146626;683;45015;-78
2023/11/12 07:04:01;;;;;;;;;12.75;9.50;;;;;17.14;62.95;100798.41;146623;635;47020;-72
2023/11/12 07:07:16;;;;;;;;;;;;;;;;;;;;;
2023/11/12 07:10:14;;;;;;;;;10.75;9.75;;;;;17.58;59.15;100789.03;146627;637;45020;-74
2023/11/12 07:13:21;;;;;;;;;10.75;9.00;;;;;17.66;59.40;100797.06;146624;641;45016;-75
2023/11/12 07:16:26;;;;;;;;;8.50;8.50;;;;;17.78;59.37;100803.50;146628;715;46010;-78
2023/11/12 07:19:24;;;;;;;;;7.75;7.50;;;;;17.98;60.65;100797.84;146619;618;46915;-79
2023/11/12 07:22:28;;;;;;;;;15.00;11.75;;;;;18.30;58.67;100808.16;146630;576;45010;-78
2023/11/12 07:25:44;;;;;;;;;17.75;11.25;;;;;16.99;57.98;100527.38;146621;654;46014;-78
2023/11/12 07:29:13;;;;;;;;;14.50;12.25;;;;;17.33;57.06;100535.06;146613;628;46010;-80
2023/11/12 07:32:15;;;;;;;;;8.00;6.25;;;;;19.26;57.88;100803.91;146600;611;48013;-71
2023/11/12 07:35:19;;;;;;;;;7.50;7.00;;;;;19.51;57.06;100811.31;146603;723;46020;-71
2023/11/12 07:38:11;;;;;;;;;17.75;16.50;;;;;19.71;56.74;100823.94;146602;569;47016;-74
2023/11/12 07:41:09;;;;;;;;;63.75;48.00;;;;;19.90;56.25;100827.72;146606;651;46012;-74
2023/11/12 07:44:04;;;;;;;;;94.67;75.67;;;;;20.08;53.53;100823.59;146603;663;47024;-73
2023/11/12 07:46:57;;;;;;;;;78.50;62.25;;;;;20.25;53.81;100831.75;146610;632;46021;-74
2023/11/12 07:49:55;;;;;;;;;56.00;41.50;;;;;20.43;52.00;100819.66;146603;571;46016;-74
2023/11/12 07:52:59;;;;;;;;;59.00;43.25;;;;;20.49;52.78;100823.25;146605;576;46020;-72
2023/11/12 07:56:17;;;;;;;;;51.50;41.00;;;;;19.07;53.93;100569.66;146603;654;46012;-74
2023/11/12 07:59:19;;;;;;;;;12.50;10.25;;;;;20.74;50.79;100827.09;146604;631;48010;-75
2023/11/12 08:02:16;;;;;;;;;13.00;11.25;;;;;20.76;49.02;100827.13;146603;613;46915;-74
2023/11/12 08:05:30;;;;;;;;;26.00;22.75;;;;;19.17;52.57;100540.88;146602;580;46020;-74
2023/11/12 08:08:26;;;;;;;;;19.00;16.75;;;;;20.94;52.13;100824.69;146601;592;46013;-75
2023/11/12 08:11:24;;;;;;;;;18.00;15.00;;;;;21.17;51.70;100816.13;146605;569;46025;-74
2023/11/12 08:14:29;;;;;;;;;18.00;15.50;;;;;21.40;52.76;100819.00;146603;688;46016;-75
2023/11/12 08:17:27;;;;;;;;;9.67;7.33;;;;;21.67;48.66;100821.84;146606;688;46010;-80
2023/11/12 08:20:24;;;;;;;;;10.33;8.67;;;;;21.82;47.65;100826.38;146604;600;46016;-80
2023/11/12 08:23:23;;;;;;;;;19.75;16.50;;;;;21.92;47.24;100837.88;146608;592;46011;-81
2023/11/12 08:26:18;;;;;;;;;2.00;2.00;;;;;22.01;45.60;100834.41;146604;588;46016;-75
2023/11/12 08:29:16;;;;;;;;;8.00;6.00;;;;;22.11;46.67;100842.38;146607;565;46020;-76
2023/11/12 08:32:11;;;;;;;;;9.00;7.00;;;;;22.30;46.08;100837.25;146598;615;48917;-78
2023/11/12 08:35:17;;;;;;;;;10.33;8.67;;;;;22.50;46.82;100832.94;146606;603;46010;-78
2023/11/12 08:38:19;;;;;;;;;5.67;4.67;;;;;22.72;44.92;100825.09;146604;585;46017;-73
2023/11/12 08:41:19;;;;;;;;;2.00;2.00;;;;;22.84;43.90;100822.47;146604;693;46043;-77
2023/11/12 08:44:21;;;;;;;;;17.00;15.00;;;;;23.01;45.97;100820.78;146603;632;46014;-78
2023/11/12 08:47:19;;;;;;;;;3.33;2.33;;;;;23.17;42.11;100812.87;146607;618;46020;-79
2023/11/12 08:50:20;;;;;;;;;6.00;6.00;;;;;23.23;43.52;100810.22;146604;586;46016;-77
2023/11/12 08:53:32;;;;;;;;;3.00;3.00;;;;;23.27;42.95;100810.25;146607;598;46021;-77
2023/11/12 08:56:29;;;;;;;;;8.67;6.00;;;;;23.30;42.00;100814.62;146601;566;46016;-83
2023/11/12 08:59:36;;;;;;;;;0.00;0.00;;;;;21.78;44.12;100546.59;146606;589;46020;-80
2023/11/12 09:02:36;;;;;;;;;3.00;1.67;;;;;23.36;41.62;100808.47;146608;563;46012;-80
2023/11/12 09:05:53;;;;;;;;;3.33;3.00;;;;;23.45;43.49;100806.69;146608;638;46010;-79
2023/11/12 09:09:06;;;;;;;;;2.67;2.00;;;;;23.57;44.32;100811.09;146603;614;47012;-78
2023/11/12 09:12:07;;;;;;;;;2.33;2.33;;;;;23.63;41.54;100797.00;146603;620;47010;-78
2023/11/12 09:15:20;;;;;;;;;7.00;6.67;;;;;23.76;42.07;100811.13;146600;570;46945;-77
2023/11/12 09:18:37;;;;;;;;;2.67;1.00;;;;;23.86;42.39;100803.19;146609;569;46010;-78
2023/11/12 09:21:42;;;;;;;;;17.00;12.25;;;;;23.93;41.49;100796.09;146600;697;48012;-78
2023/11/12 09:24:46;;;;;;;;;8.33;5.67;;;;;24.02;41.29;100796.06;146605;565;46021;-79
2023/11/12 09:28:00;;;;;;;;;8.00;3.33;;;;;24.06;42.74;100794.28;146605;609;47012;-79
2023/11/12 09:31:11;;;;;;;;;2.67;2.00;;;;;23.07;43.72;100620.69;146609;719;46020;-79
2023/11/12 09:34:26;;;;;;;;;;;;;;;;;;;;;
2023/11/12 09:37:34;;;;;;;;;4.00;2.00;;;;;24.01;40.44;100767.81;146604;592;46021;-79
2023/11/12 09:40:36;;;;;;;;;6.00;3.00;;;;;23.99;40.42;100777.53;146605;635;46016;-78
2023/11/12 09:43:41;;;;;;;;;3.00;3.00;;;;;23.93;41.19;100778.44;146607;574;46023;-81
2023/11/12 09:46:35;;;;;;;;;3.00;3.00;;;;;24.00;41.27;100787.25;146601;569;47016;-78
2023/11/12 09:49:29;;;;;;;;;5.33;4.33;;;;;24.16;40.06;100769.53;146610;583;46020;-86
2023/11/12 09:52:35;;;;;;;;;1.00;0.00;;;;;24.32;40.41;100780.94;146603;606;47013;-78
2023/11/12 09:56:04;;;;;;;;;;;;;;;;;;;;;
2023/11/12 09:59:15;;;;;;;;;0.67;0.67;;;;;24.15;39.14;100766.00;146605;575;47016;-77
2023/11/12 10:02:18;;;;;;;;;1.00;0.00;;;;;24.10;41.94;100756.31;146605;586;47010;-78
2023/11/12 10:05:13;;;;;;;;;0.33;0.00;;;;;24.18;41.15;100765.13;146600;594;47012;-77
2023/11/12 10:08:22;;;;;;;;;0.00;0.00;;;;;24.32;42.45;100768.56;146605;715;47010;-78
2023/11/12 10:11:36;;;;;;;;;0.67;0.67;;;;;24.52;43.17;100759.69;146606;574;46012;-78
2023/11/12 10:14:40;;;;;;;;;1.00;1.00;;;;;24.70;38.54;100748.94;146608;604;46021;-80
2023/11/12 10:17:52;;;;;;;;;0.33;0.33;;;;;24.90;36.90;100743.53;146605;584;46914;-81
2023/11/12 10:20:56;;;;;;;;;0.00;0.00;;;;;24.95;37.12;100724.91;146606;593;46011;-80
2023/11/12 10:23:52;;;;;;;;;1.00;0.33;;;;;24.97;38.13;100724.00;146603;598;47026;-80
2023/11/12 10:26:50;;;;;;;;;0.00;0.00;;;;;25.11;37.36;100723.91;146606;586;47028;-78
2023/11/12 10:30:04;;;;;;;;;0.00;0.00;;;;;25.19;40.20;100719.44;146627;683;46013;-77
2023/11/12 10:33:00;;;;;;;;;2.00;0.00;;;;;25.16;39.64;100710.63;146627;604;46020;-78
2023/11/12 10:36:18;;;;;;;;;1.00;0.67;;;;;25.02;39.59;100716.03;146627;570;46013;-81
2023/11/12 10:39:17;;;;;;;;;0.33;0.00;;;;;24.82;37.51;100719.69;146628;584;45020;-79
2023/11/12 10:42:39;;;;;;;;;0.33;0.00;;;;;23.23;42.25;100485.72;146625;589;45016;-82
2023/11/12 10:45:55;;;;;;;;;0.00;0.00;;;;;24.29;40.12;100699.69;146626;608;46010;-83
2023/11/12 10:49:00;;;;;;;;;0.00;0.00;;;;;23.91;40.19;100694.59;146629;686;45012;-81
2023/11/12 10:52:12;;;;;;;;;;;;;;;;;;;;;
2023/11/12 10:55:17;;;;;;;;;2.00;0.33;;;;;23.47;42.69;100688.50;146625;597;46010;-82
2023/11/12 10:58:14;;;;;;;;;1.33;0.00;;;;;23.46;41.11;100675.28;146628;596;47010;-83
2023/11/12 11:01:14;;;;;;;;;2.00;0.00;;;;;23.52;40.78;100678.78;146626;595;46012;-82
2023/11/12 11:04:18;;;;;;;;;1.00;1.00;;;;;23.56;42.94;100670.84;146632;694;46010;-82
2023/11/12 11:07:48;;;;;;;;;1.33;0.00;;;;;22.26;40.60;100416.37;146627;580;46915;-82
2023/11/12 11:10:45;;;;;;;;;0.00;0.00;;;;;23.91;38.50;100684.87;146627;564;46020;-82
2023/11/12 11:13:46;;;;;;;;;1.67;0.67;;;;;23.38;38.07;100574.75;146626;637;46012;-80
2023/11/12 11:16:55;;;;;;;;;1.00;0.00;;;;;24.26;41.56;100689.09;146626;598;47033;-81
2023/11/12 11:20:13;;;;;;;;;3.67;3.67;;;;;24.13;42.75;100651.22;146624;564;46021;-80
2023/11/12 11:24:04;;;;;;;;;4.00;3.00;;;;;23.00;41.83;100429.44;146628;642;45020;-81
2023/11/12 11:27:24;;;;;;;;;1.33;1.33;;;;;23.23;42.13;100461.03;146625;570;45017;-84
2023/11/12 11:30:22;;;;;;;;;1.00;1.00;;;;;24.38;40.17;100690.81;146605;578;46020;-82
2023/11/12 11:33:27;;;;;;;;;2.67;1.00;;;;;24.03;41.34;100685.72;146598;613;47012;-80
2023/11/12 11:36:26;;;;;;;;;2.00;1.00;;;;;23.59;41.72;100684.06;146608;622;46020;-82
2023/11/12 11:39:46;;;;;;;;;3.00;0.33;;;;;23.08;42.54;100680.63;146602;619;47012;-81
2023/11/12 11:43:11;;;;;;;;;5.33;2.00;;;;;22.70;44.04;100673.53;146608;586;46011;-85
2023/11/12 11:46:26;;;;;;;;;2.00;1.00;;;;;22.30;44.11;100661.13;146601;667;48016;-85
2023/11/12 11:49:23;;;;;;;;;3.00;1.67;;;;;22.06;44.96;100663.69;146604;638;46020;-82
2023/11/12 11:52:45;;;;;;;;;3.00;2.00;;;;;20.23;45.61;100377.13;146604;598;47017;-81
2023/11/12 11:55:39;;;;;;;;;2.00;2.00;;;;;21.74;45.69;100653.87;146607;624;46020;-81
2023/11/12 11:58:54;;;;;;;;;11.67;8.67;;;;;21.71;45.75;100647.69;146602;656;46017;-82
2023/11/12 12:01:55;;;;;;;;;13.00;9.67;;;;;21.74;44.51;100645.06;146608;607;46010;-83
2023/11/12 12:05:10;;;;;;;;;9.67;6.00;;;;;21.82;44.17;100643.38;146602;621;47014;-83
2023/11/12 12:08:18;;;;;;;;;4.00;2.67;;;;;21.90;44.32;100641.66;146608;585;47010;-83
2023/11/12 12:11:36;;;;;;;;;;;;;;;;;;;;;
2023/11/12 12:14:29;;;;;;;;;7.00;6.00;;;;;21.89;44.49;100632.81;146604;632;47012;-82
2023/11/12 12:17:29;;;;;;;;;8.33;8.00;;;;;21.76;44.06;100630.13;146603;607;46016;-83
2023/11/12 12:21:01;;;;;;;;;;;;;;;;;;;;;
2023/11/12 12:23:59;;;;;;;;;2.67;1.00;;;;;21.83;41.75;100635.44;146603;590;47012;-81
2023/11/12 12:27:02;;;;;;;;;1.00;1.00;;;;;21.92;41.64;100640.75;146603;650;47021;-82
2023/11/12 12:30:03;;;;;;;;;1.67;1.00;;;;;21.88;42.60;100640.75;146627;583;45014;-81
2023/11/12 12:33:24;;;;;;;;;4.00;2.33;;;;;21.77;42.36;100653.00;146631;575;45022;-80
2023/11/12 12:36:28;;;;;;;;;8.00;6.00;;;;;21.60;42.94;100656.47;146629;569;45016;-77
2023/11/12 12:39:42;;;;;;;;;3.67;3.67;;;;;21.50;41.90;100653.78;146626;581;46010;-81
2023/11/12 12:42:46;;;;;;;;;5.00;4.00;;;;;21.36;42.80;100649.28;146619;572;47016;-83
2023/11/12 12:45:39;;;;;;;;;4.33;3.00;;;;;21.35;42.07;100655.44;146626;616;45020;-84
2023/11/12 12:48:55;;;;;;;;;2.00;2.00;;;;;21.30;42.99;100654.47;146627;564;45017;-66
2023/11/12 12:52:03;;;;;;;;;6.00;3.00;;;;;21.23;43.33;100658.84;146628;605;46020;-71
2023/11/12 12:55:21;;;;;;;;;3.00;2.00;;;;;19.55;44.24;100376.56;146626;607;46014;-78
2023/11/12 12:58:46;;;;;;;;;2.00;1.00;;;;;21.10;44.58;100657.00;146628;599;45026;-78
2023/11/12 13:02:02;;;;;;;;;5.00;3.00;;;;;21.05;43.87;100663.97;146626;569;45921;-77
2023/11/12 13:05:18;;;;;;;;;3.00;2.33;;;;;19.37;43.50;100369.37;146630;570;46011;-73
2023/11/12 13:08:21;;;;;;;;;2.00;1.00;;;;;20.97;43.43;100647.25;146624;669;46016;-73
2023/11/12 13:11:19;;;;;;;;;3.00;1.67;;;;;20.95;43.66;100651.63;146628;589;45021;-77
2023/11/12 13:14:27;;;;;;;;;2.00;1.00;;;;;20.93;44.26;100633.16;146628;599;45916;-80
2023/11/12 13:17:26;;;;;;;;;1.00;1.00;;;;;20.93;44.72;100625.25;146626;572;45020;-77
2023/11/12 13:20:25;;;;;;;;;1.00;0.67;;;;;21.01;44.82;100624.41;146627;647;45034;-85
2023/11/12 13:23:28;;;;;;;;;2.00;1.00;;;;;19.58;45.63;100363.44;146630;633;46010;-82
2023/11/12 13:26:22;;;;;;;;;0.33;0.33;;;;;21.10;45.45;100621.84;146625;569;46017;-81
2023/11/12 13:29:19;;;;;;;;;0.00;0.00;;;;;21.11;45.12;100637.66;146606;583;46020;-84
2023/11/12 13:32:17;;;;;;;;;0.00;0.00;;;;;21.12;44.40;100634.19;146606;574;46012;-85
2023/11/12 13:35:26;;;;;;;;;0.33;0.33;;;;;21.10;44.55;100624.47;146607;629;46021;-82
2023/11/12 13:38:23;;;;;;;;;0.00;0.00;;;;;21.10;45.30;100628.00;146606;571;46012;-82
2023/11/12 13:41:27;;;;;;;;;1.67;0.00;;;;;21.09;45.23;100636.78;146605;596;47010;-84
2023/11/12 13:44:25;;;;;;;;;0.00;0.00;;;;;21.06;45.56;100622.69;146604;575;46016;-83
2023/11/12 13:47:22;;;;;;;;;1.00;1.00;;;;;21.04;45.49;100625.31;146604;586;46020;-82
2023/11/12 13:50:30;;;;;;;;;3.67;1.67;;;;;21.03;45.87;100631.47;146602;584;47012;-85
2023/11/12 13:53:25;;;;;;;;;2.00;1.00;;;;;21.02;45.40;100636.72;146610;630;46010;-82
2023/11/12 13:56:27;;;;;;;;;1.00;0.00;;;;;20.97;45.12;100631.44;146604;597;46017;-81
2023/11/12 13:59:36;;;;;;;;;1.00;0.00;;;;;19.43;46.44;100378.19;146604;588;47010;-82
2023/11/12 14:02:40;;;;;;;;;1.00;1.00;;;;;20.91;45.66;100649.84;146603;578;46016;-83
2023/11/12 14:05:43;;;;;;;;;0.33;0.33;;;;;20.87;46.29;100642.75;146605;578;48020;-84
2023/11/12 14:08:35;;;;;;;;;5.33;2.00;;;;;20.86;45.68;100651.53;146607;565;46034;-83
2023/11/12 14:11:50;;;;;;;;;2.00;2.00;;;;;20.83;45.25;100648.88;146606;645;46020;-87
2023/11/12 14:15:05;;;;;;;;;;;;;;;;;;;;;
2023/11/12 14:18:21;;;;;;;;;6.00;2.00;;;;;20.82;46.54;100644.50;146605;560;46021;-83
2023/11/12 14:21:18;;;;;;;;;2.33;1.00;;;;;20.81;46.30;100648.88;146607;615;46012;-83
2023/11/12 14:24:42;;;;;;;;;2.33;0.33;;;;;20.80;45.96;100631.28;146604;569;46020;-83
2023/11/12 14:27:56;;;;;;;;;5.00;1.67;;;;;20.82;46.86;100631.31;146606;575;46014;-83
2023/11/12 14:30:54;;;;;;;;;3.00;1.00;;;;;20.82;46.86;100624.28;146603;634;47020;-84
2023/11/12 14:33:49;;;;;;;;;3.33;1.33;;;;;20.84;46.71;100626.91;146603;570;46034;-85
2023/11/12 14:37:03;;;;;;;;;3.00;1.00;;;;;20.83;47.38;100620.75;146606;563;46020;-84